createdAt,value
2019-03-24T00:03:47.899Z,4.23
2019-03-24T00:08:54.924Z,4.27
2019-03-24T00:14:07.274Z,5.00
2019-03-24T00:19:21.866Z,4.47
2019-03-24T00:24:35.165Z,4.23
2019-03-24T00:29:44.429Z,4.70
2019-03-24T00:34:55.241Z,4.60
2019-03-24T00:40:03.937Z,4.53
2019-03-24T00:45:13.937Z,4.87
2019-03-24T00:50:21.306Z,5.00
2019-03-24T00:55:32.057Z,4.43
2019-03-24T01:00:52.847Z,5.13
2019-03-24T01:06:04.036Z,5.60
2019-03-24T01:11:17.479Z,4.90
2019-03-24T01:16:28.717Z,4.23
2019-03-24T01:21:35.818Z,5.00
2019-03-24T01:26:45.704Z,4.07
2019-03-24T01:31:55.308Z,5.17
2019-03-24T01:37:02.179Z,6.00
2019-03-24T01:42:10.591Z,5.63
2019-03-24T01:47:21.417Z,5.60
2019-03-24T01:52:28.512Z,5.53
2019-03-24T01:57:35.556Z,6.57
2019-03-24T02:02:43.059Z,5.97
2019-03-24T02:07:56.454Z,4.67
2019-03-24T02:13:05.859Z,4.70
2019-03-24T02:18:15.890Z,4.67
2019-03-24T02:23:31.519Z,5.60
2019-03-24T02:28:37.972Z,5.57
2019-03-24T02:33:46.943Z,5.10
2019-03-24T02:38:59.053Z,5.63
2019-03-24T02:44:09.936Z,6.10
2019-03-24T02:49:18.055Z,6.07
2019-03-24T02:54:30.154Z,6.73
2019-03-24T02:59:42.572Z,5.00
2019-03-24T03:04:51.112Z,5.10
2019-03-24T03:10:01.060Z,5.17
2019-03-24T03:15:12.132Z,6.67
2019-03-24T03:20:21.073Z,6.43
2019-03-24T03:25:29.253Z,5.67
2019-03-24T03:30:42.136Z,7.17
2019-03-24T03:35:57.257Z,5.63
2019-03-24T03:41:05.593Z,5.57
2019-03-24T03:46:15.359Z,6.27
2019-03-24T03:51:26.786Z,6.10
2019-03-24T03:56:35.569Z,6.63
2019-03-24T04:01:48.048Z,6.60
2019-03-24T04:06:57.442Z,5.70
2019-03-24T04:12:10.736Z,6.80
2019-03-24T04:17:17.826Z,5.30
2019-03-24T04:22:29.688Z,5.60
2019-03-24T04:27:38.897Z,6.03
2019-03-24T04:32:53.257Z,4.97
2019-03-24T04:38:04.485Z,5.53
2019-03-24T04:43:15.778Z,5.93
2019-03-24T04:48:22.676Z,5.03
2019-03-24T04:53:32.545Z,5.87
2019-03-24T04:58:43.773Z,6.03
2019-03-24T05:03:53.061Z,6.57
2019-03-24T05:09:01.848Z,6.33
2019-03-24T05:14:11.705Z,8.50
2019-03-24T05:19:24.213Z,6.40
2019-03-24T05:24:40.265Z,6.90
2019-03-24T05:29:47.342Z,6.17
2019-03-24T05:34:55.050Z,5.50
2019-03-24T05:40:04.913Z,5.87
2019-03-24T05:45:12.490Z,5.27
2019-03-24T05:50:21.210Z,6.73
2019-03-24T05:55:28.419Z,4.60
2019-03-24T06:00:41.351Z,4.57
2019-03-24T06:05:53.742Z,4.97
2019-03-24T06:11:03.845Z,5.37
2019-03-24T06:16:14.102Z,4.80
2019-03-24T06:21:27.109Z,6.27
2019-03-24T06:26:35.546Z,5.17
2019-03-24T06:31:50.692Z,5.00
2019-03-24T06:37:05.857Z,5.00
2019-03-24T06:42:16.898Z,4.63
2019-03-24T06:47:26.821Z,5.57
2019-03-24T06:52:35.950Z,5.23
2019-03-24T06:57:50.178Z,5.77
2019-03-24T07:02:59.253Z,4.53
2019-03-24T07:08:12.548Z,6.20
2019-03-24T07:13:28.450Z,6.17
2019-03-24T07:18:39.170Z,4.43
2019-03-24T07:23:51.054Z,6.57
2019-03-24T07:29:03.492Z,5.93
2019-03-24T07:34:13.466Z,5.10
2019-03-24T07:39:23.558Z,5.20
2019-03-24T07:44:34.589Z,5.23
2019-03-24T07:49:46.029Z,5.60
2019-03-24T07:54:54.413Z,4.90
2019-03-24T08:00:03.115Z,5.40
2019-03-24T08:05:13.951Z,5.20
2019-03-24T08:10:21.016Z,4.07
2019-03-24T08:15:29.495Z,4.43
2019-03-24T08:20:40.741Z,4.43
2019-03-24T08:25:48.161Z,4.93
2019-03-24T08:30:57.272Z,4.13
2019-03-24T08:36:04.655Z,5.40
2019-03-24T08:41:15.651Z,5.17
2019-03-24T08:46:26.744Z,4.83
2019-03-24T08:51:33.529Z,4.50
2019-03-24T08:56:48.845Z,4.50
2019-03-24T09:01:57.250Z,4.90
2019-03-24T09:07:06.381Z,4.60
2019-03-24T09:12:20.818Z,5.40
2019-03-24T09:17:25.440Z,4.00
2019-03-24T09:22:38.340Z,4.13
2019-03-24T09:27:49.062Z,4.27
2019-03-24T09:32:56.075Z,3.80
2019-03-24T09:38:03.294Z,3.87
2019-03-24T09:43:10.373Z,4.17
2019-03-24T09:48:20.062Z,3.97
2019-03-24T09:53:35.934Z,3.53
2019-03-24T09:58:44.731Z,3.27
2019-03-24T10:03:58.973Z,3.63
2019-03-24T10:09:09.476Z,3.00
2019-03-24T10:14:17.400Z,2.97
2019-03-24T10:19:26.519Z,2.50
2019-03-24T10:24:36.454Z,2.30
2019-03-24T10:29:44.499Z,2.83
2019-03-24T10:34:56.937Z,2.87
2019-03-24T10:40:06.898Z,3.13
2019-03-24T10:45:14.750Z,3.33
2019-03-24T10:50:28.178Z,2.97
2019-03-24T10:55:46.249Z,3.20
2019-03-24T11:00:55.396Z,3.50
2019-03-24T11:06:07.911Z,3.07
2019-03-24T11:11:27.230Z,3.33
2019-03-24T11:16:39.487Z,2.90
2019-03-24T11:21:53.314Z,3.10
2019-03-24T11:27:06.768Z,2.90
2019-03-24T11:32:17.638Z,2.20
2019-03-24T11:37:27.434Z,3.50
2019-03-24T11:42:37.312Z,3.43
2019-03-24T11:47:47.514Z,3.77
2019-03-24T11:52:56.262Z,3.30
2019-03-24T11:58:08.934Z,3.10
2019-03-24T12:03:18.218Z,3.47
2019-03-24T12:08:27.585Z,3.40
2019-03-24T12:13:37.161Z,2.53
2019-03-24T12:18:47.690Z,2.10
2019-03-24T12:23:54.836Z,2.30
2019-03-24T12:29:04.138Z,2.30
2019-03-24T12:34:18.266Z,2.63
2019-03-24T12:39:27.545Z,3.07
2019-03-24T12:44:36.962Z,2.80
2019-03-24T12:49:47.107Z,2.87
2019-03-24T12:54:59.060Z,3.20
2019-03-24T13:00:11.257Z,3.13
2019-03-24T13:05:19.343Z,2.67
2019-03-24T13:10:26.776Z,2.87
2019-03-24T13:15:35.649Z,2.87
2019-03-24T13:20:48.600Z,4.00
2019-03-24T13:25:59.282Z,3.67
2019-03-24T13:31:15.265Z,3.00
2019-03-24T13:36:25.483Z,3.67
2019-03-24T13:41:31.772Z,3.53
2019-03-24T13:46:39.553Z,2.67
2019-03-24T13:51:48.410Z,2.73
2019-03-24T13:56:57.704Z,3.27
2019-03-24T14:02:06.693Z,2.30
2019-03-24T14:07:16.656Z,2.40
2019-03-24T14:12:28.640Z,2.00
2019-03-24T14:17:38.643Z,2.23
2019-03-24T14:22:46.111Z,2.10
2019-03-24T14:27:59.938Z,2.17
2019-03-24T14:33:09.709Z,2.00
2019-03-24T14:38:19.567Z,2.10
2019-03-24T14:43:33.745Z,1.83
2019-03-24T14:48:40.194Z,2.10
2019-03-24T14:53:52.628Z,1.53
2019-03-24T14:59:03.725Z,1.37
2019-03-24T15:04:14.338Z,1.90
2019-03-24T15:09:24.272Z,1.80
2019-03-24T15:14:31.527Z,2.70
2019-03-24T15:19:39.229Z,2.73
2019-03-24T15:24:50.921Z,3.17
2019-03-24T15:30:00.708Z,3.20
2019-03-24T15:35:10.481Z,3.20
2019-03-24T15:40:26.591Z,3.60
2019-03-24T15:45:37.248Z,3.33
2019-03-24T15:50:44.035Z,3.97
2019-03-24T15:55:51.742Z,3.40
2019-03-24T16:01:09.434Z,3.17
2019-03-24T16:06:20.601Z,3.40
2019-03-24T16:11:35.303Z,2.90
2019-03-24T16:16:42.088Z,3.00
2019-03-24T16:21:48.946Z,2.40
2019-03-24T16:26:58.607Z,3.23
2019-03-24T16:32:05.319Z,2.10
2019-03-24T16:37:18.452Z,2.87
2019-03-24T16:42:31.208Z,2.73
2019-03-24T16:47:41.371Z,2.77
2019-03-24T16:52:49.739Z,2.20
2019-03-24T16:57:58.545Z,2.17
2019-03-24T17:03:08.471Z,2.27
2019-03-24T17:08:17.567Z,2.27
2019-03-24T17:13:27.001Z,2.67
2019-03-24T17:18:37.244Z,2.43
2019-03-24T17:23:51.658Z,1.90
2019-03-24T17:29:01.607Z,2.20
2019-03-24T17:34:12.313Z,2.70
2019-03-24T17:39:21.096Z,2.60
2019-03-24T17:44:28.770Z,3.30
2019-03-24T17:49:38.425Z,3.13
2019-03-24T17:54:46.903Z,3.27
2019-03-24T17:59:56.083Z,3.33
2019-03-24T18:05:06.063Z,4.00
2019-03-24T18:10:13.724Z,4.23
2019-03-24T18:15:25.776Z,4.20
2019-03-24T18:20:34.156Z,3.43
2019-03-24T18:25:42.467Z,3.90
2019-03-24T18:30:52.200Z,3.57
2019-03-24T18:36:02.858Z,3.40
2019-03-24T18:41:11.694Z,3.50
2019-03-24T18:46:21.942Z,2.93
2019-03-24T18:51:31.374Z,3.57
2019-03-24T18:56:45.919Z,2.67
2019-03-24T19:01:59.109Z,3.47
2019-03-24T19:07:06.912Z,3.40
2019-03-24T19:12:17.000Z,2.93
2019-03-24T19:17:31.302Z,3.17
2019-03-24T19:22:42.783Z,3.00
2019-03-24T19:27:51.966Z,3.83
2019-03-24T19:32:59.519Z,3.40
2019-03-24T19:39:44.332Z,3.30
2019-03-24T19:44:54.056Z,2.63
2019-03-24T19:50:04.449Z,3.50
2019-03-24T19:55:12.969Z,3.23
2019-03-24T20:00:22.331Z,3.23
2019-03-24T20:05:33.037Z,3.60
2019-03-24T20:10:47.107Z,3.50
2019-03-24T20:15:56.013Z,3.23
2019-03-24T20:21:06.774Z,3.60
2019-03-24T20:26:14.783Z,3.67
2019-03-24T20:31:23.333Z,3.70
2019-03-24T20:36:38.153Z,3.97
2019-03-24T20:41:48.121Z,4.10
2019-03-24T20:46:59.713Z,4.20
2019-03-24T20:52:08.573Z,3.50
2019-03-24T20:57:18.503Z,3.50
2019-03-24T21:02:27.692Z,3.70
2019-03-24T21:07:37.780Z,3.37
2019-03-24T21:12:44.514Z,3.77
2019-03-24T21:17:53.177Z,4.63
2019-03-24T21:23:06.663Z,3.73
2019-03-24T21:28:14.733Z,4.33
2019-03-24T21:33:23.847Z,3.37
2019-03-24T21:38:35.035Z,4.23
2019-03-24T21:43:47.198Z,4.27
2019-03-24T21:49:01.830Z,4.00
2019-03-24T21:54:12.586Z,4.30
2019-03-24T21:59:20.257Z,4.50
2019-03-24T22:04:28.654Z,4.57
2019-03-24T22:09:40.261Z,4.93
2019-03-24T22:14:53.764Z,4.50
2019-03-24T22:20:03.602Z,4.13
2019-03-24T22:25:15.209Z,4.23
2019-03-24T22:30:23.177Z,3.47
2019-03-24T22:35:33.128Z,3.70
2019-03-24T22:40:42.439Z,3.77
2019-03-24T22:45:50.166Z,4.13
2019-03-24T22:50:58.528Z,3.70
2019-03-24T22:56:07.874Z,3.87
2019-03-24T23:01:16.434Z,3.93
2019-03-24T23:06:36.384Z,2.73
2019-03-24T23:11:44.524Z,3.67
2019-03-24T23:17:01.410Z,2.90
2019-03-24T23:22:09.859Z,2.43
2019-03-24T23:27:19.037Z,2.97
2019-03-24T23:32:28.832Z,2.97
2019-03-24T23:37:42.161Z,2.13
2019-03-24T23:42:51.881Z,2.43
2019-03-24T23:48:09.412Z,2.87
2019-03-24T23:53:21.189Z,3.30
2019-03-24T23:58:40.315Z,3.07
